sensor_id;sensor_type;location;lat;lon;timestamp;P1;durP1;ratioP1;P2;durP2;ratioP2
8663;SDS011;4369;47.842;13.096;2023-05-28T00:01:58;9.53;;;5.00;;
8663;SDS011;4369;47.842;13.096;2023-05-28T00:05:00;10.63;;;5.40;;
8663;SDS011;4369;47.842;13.096;2023-05-28T00:07:45;8.60;;;5.20;;
8663;SDS011;4369;47.842;13.096;2023-05-28T00:10:15;5.70;;;4.47;;
8663;SDS011;4369;47.842;13.096;2023-05-28T00:15:52;7.30;;;4.73;;
8663;SDS011;4369;47.842;13.096;2023-05-28T00:18:51;8.80;;;4.80;;
8663;SDS011;4369;47.842;13.096;2023-05-28T00:21:36;9.73;;;5.27;;
8663;SDS011;4369;47.842;13.096;2023-05-28T00:29:28;7.30;;;5.07;;
8663;SDS011;4369;47.842;13.096;2023-05-28T00:31:58;10.40;;;5.17;;
8663;SDS011;4369;47.842;13.096;2023-05-28T00:34:25;8.67;;;4.90;;
8663;SDS011;4369;47.842;13.096;2023-05-28T00:40:25;7.47;;;5.20;;
8663;SDS011;4369;47.842;13.096;2023-05-28T00:46:05;5.70;;;4.67;;
8663;SDS011;4369;47.842;13.096;2023-05-28T00:48:33;7.33;;;5.17;;
8663;SDS011;4369;47.842;13.096;2023-05-28T00:51:00;6.93;;;4.73;;
8663;SDS011;4369;47.842;13.096;2023-05-28T00:53:30;9.27;;;5.47;;
8663;SDS011;4369;47.842;13.096;2023-05-28T00:55:57;9.37;;;4.67;;
8663;SDS011;4369;47.842;13.096;2023-05-28T00:58:46;11.17;;;5.10;;
8663;SDS011;4369;47.842;13.096;2023-05-28T01:01:14;9.83;;;5.33;;
8663;SDS011;4369;47.842;13.096;2023-05-28T01:03:51;7.53;;;4.87;;
8663;SDS011;4369;47.842;13.096;2023-05-28T01:06:23;7.13;;;4.87;;
8663;SDS011;4369;47.842;13.096;2023-05-28T01:08:59;8.17;;;5.07;;
8663;SDS011;4369;47.842;13.096;2023-05-28T01:11:26;9.70;;;5.37;;
8663;SDS011;4369;47.842;13.096;2023-05-28T01:13:54;6.40;;;4.77;;
8663;SDS011;4369;47.842;13.096;2023-05-28T01:16:36;7.23;;;4.90;;
8663;SDS011;4369;47.842;13.096;2023-05-28T01:19:03;7.93;;;5.30;;
8663;SDS011;4369;47.842;13.096;2023-05-28T01:24:01;8.10;;;4.80;;
8663;SDS011;4369;47.842;13.096;2023-05-28T01:26:30;8.80;;;4.97;;
8663;SDS011;4369;47.842;13.096;2023-05-28T01:29:19;8.70;;;5.00;;
8663;SDS011;4369;47.842;13.096;2023-05-28T01:32:03;6.77;;;4.73;;
8663;SDS011;4369;47.842;13.096;2023-05-28T01:34:33;9.20;;;5.20;;
8663;SDS011;4369;47.842;13.096;2023-05-28T01:37:08;7.10;;;5.00;;
8663;SDS011;4369;47.842;13.096;2023-05-28T01:39:39;8.30;;;4.77;;
8663;SDS011;4369;47.842;13.096;2023-05-28T01:42:11;10.90;;;7.17;;
8663;SDS011;4369;47.842;13.096;2023-05-28T01:44:43;9.20;;;6.00;;
8663;SDS011;4369;47.842;13.096;2023-05-28T01:47:12;8.60;;;5.07;;
8663;SDS011;4369;47.842;13.096;2023-05-28T01:49:41;11.30;;;4.93;;
8663;SDS011;4369;47.842;13.096;2023-05-28T01:52:12;10.33;;;6.60;;
8663;SDS011;4369;47.842;13.096;2023-05-28T01:54:42;9.70;;;5.93;;
8663;SDS011;4369;47.842;13.096;2023-05-28T01:57:09;9.90;;;6.03;;
8663;SDS011;4369;47.842;13.096;2023-05-28T01:59:36;7.47;;;5.47;;
8663;SDS011;4369;47.842;13.096;2023-05-28T02:02:25;12.07;;;6.07;;
8663;SDS011;4369;47.842;13.096;2023-05-28T02:04:53;9.83;;;5.60;;
8663;SDS011;4369;47.842;13.096;2023-05-28T02:07:23;7.00;;;5.37;;
8663;SDS011;4369;47.842;13.096;2023-05-28T02:12:35;9.67;;;5.40;;
8663;SDS011;4369;47.842;13.096;2023-05-28T02:15:25;6.00;;;4.60;;
8663;SDS011;4369;47.842;13.096;2023-05-28T02:17:54;12.80;;;5.83;;
8663;SDS011;4369;47.842;13.096;2023-05-28T02:20:22;6.43;;;5.50;;
8663;SDS011;4369;47.842;13.096;2023-05-28T02:22:51;8.60;;;5.50;;
8663;SDS011;4369;47.842;13.096;2023-05-28T02:28:05;8.13;;;5.70;;
8663;SDS011;4369;47.842;13.096;2023-05-28T02:30:36;6.50;;;4.77;;
8663;SDS011;4369;47.842;13.096;2023-05-28T02:33:30;8.83;;;5.50;;
8663;SDS011;4369;47.842;13.096;2023-05-28T02:36:12;8.87;;;5.40;;
8663;SDS011;4369;47.842;13.096;2023-05-28T02:38:40;6.67;;;4.83;;
8663;SDS011;4369;47.842;13.096;2023-05-28T02:41:10;11.40;;;5.70;;
8663;SDS011;4369;47.842;13.096;2023-05-28T02:43:39;12.43;;;5.93;;
8663;SDS011;4369;47.842;13.096;2023-05-28T02:46:40;9.77;;;5.70;;
8663;SDS011;4369;47.842;13.096;2023-05-28T02:49:08;7.87;;;5.30;;
8663;SDS011;4369;47.842;13.096;2023-05-28T02:51:46;9.20;;;5.77;;
8663;SDS011;4369;47.842;13.096;2023-05-28T02:54:32;9.87;;;6.33;;
8663;SDS011;4369;47.842;13.096;2023-05-28T02:57:08;8.00;;;5.53;;
8663;SDS011;4369;47.842;13.096;2023-05-28T02:59:57;9.37;;;5.33;;
8663;SDS011;4369;47.842;13.096;2023-05-28T03:07:36;9.53;;;5.70;;
8663;SDS011;4369;47.842;13.096;2023-05-28T03:10:04;12.47;;;6.00;;
8663;SDS011;4369;47.842;13.096;2023-05-28T03:15:26;10.50;;;5.97;;
8663;SDS011;4369;47.842;13.096;2023-05-28T03:17:53;7.77;;;5.37;;
8663;SDS011;4369;47.842;13.096;2023-05-28T03:20:23;13.70;;;5.60;;
8663;SDS011;4369;47.842;13.096;2023-05-28T03:23:01;11.30;;;5.67;;
8663;SDS011;4369;47.842;13.096;2023-05-28T03:28:04;8.03;;;5.87;;
8663;SDS011;4369;47.842;13.096;2023-05-28T03:30:33;7.57;;;5.53;;
8663;SDS011;4369;47.842;13.096;2023-05-28T03:33:00;8.10;;;5.83;;
8663;SDS011;4369;47.842;13.096;2023-05-28T03:35:28;10.73;;;5.97;;
8663;SDS011;4369;47.842;13.096;2023-05-28T03:40:48;10.40;;;5.97;;
8663;SDS011;4369;47.842;13.096;2023-05-28T03:45:52;6.83;;;5.37;;
8663;SDS011;4369;47.842;13.096;2023-05-28T03:48:20;9.87;;;5.60;;
8663;SDS011;4369;47.842;13.096;2023-05-28T03:50:47;10.47;;;5.73;;
8663;SDS011;4369;47.842;13.096;2023-05-28T03:55:50;7.70;;;5.63;;
8663;SDS011;4369;47.842;13.096;2023-05-28T03:58:35;9.70;;;6.37;;
8663;SDS011;4369;47.842;13.096;2023-05-28T04:04:04;7.33;;;5.53;;
8663;SDS011;4369;47.842;13.096;2023-05-28T04:06:32;9.57;;;5.20;;
8663;SDS011;4369;47.842;13.096;2023-05-28T04:09:00;8.93;;;5.87;;
8663;SDS011;4369;47.842;13.096;2023-05-28T04:20:10;10.40;;;5.70;;
8663;SDS011;4369;47.842;13.096;2023-05-28T04:22:38;8.03;;;5.53;;
8663;SDS011;4369;47.842;13.096;2023-05-28T04:25:05;9.93;;;6.53;;
8663;SDS011;4369;47.842;13.096;2023-05-28T04:27:32;11.00;;;6.57;;
8663;SDS011;4369;47.842;13.096;2023-05-28T04:29:59;9.53;;;5.90;;
8663;SDS011;4369;47.842;13.096;2023-05-28T04:32:26;7.63;;;5.97;;
8663;SDS011;4369;47.842;13.096;2023-05-28T04:34:56;10.57;;;6.10;;
8663;SDS011;4369;47.842;13.096;2023-05-28T04:37:24;9.03;;;5.90;;
8663;SDS011;4369;47.842;13.096;2023-05-28T04:39:55;6.87;;;5.53;;
8663;SDS011;4369;47.842;13.096;2023-05-28T04:53:09;11.63;;;6.17;;
8663;SDS011;4369;47.842;13.096;2023-05-28T04:56:24;9.23;;;5.83;;
8663;SDS011;4369;47.842;13.096;2023-05-28T04:59:54;11.13;;;6.10;;
8663;SDS011;4369;47.842;13.096;2023-05-28T05:02:25;9.30;;;5.90;;
8663;SDS011;4369;47.842;13.096;2023-05-28T05:07:49;9.60;;;6.40;;
8663;SDS011;4369;47.842;13.096;2023-05-28T05:41:18;11.20;;;6.73;;
8663;SDS011;4369;47.842;13.096;2023-05-28T05:49:03;9.97;;;6.60;;
8663;SDS011;4369;47.842;13.096;2023-05-28T05:51:42;13.63;;;6.73;;
8663;SDS011;4369;47.842;13.096;2023-05-28T05:54:35;10.73;;;6.37;;
8663;SDS011;4369;47.842;13.096;2023-05-28T06:02:58;11.80;;;7.00;;
8663;SDS011;4369;47.842;13.096;2023-05-28T06:05:25;15.03;;;7.40;;
8663;SDS011;4369;47.842;13.096;2023-05-28T06:07:52;12.43;;;7.20;;
8663;SDS011;4369;47.842;13.096;2023-05-28T06:10:20;10.10;;;6.53;;
8663;SDS011;4369;47.842;13.096;2023-05-28T06:12:47;14.03;;;6.73;;
8663;SDS011;4369;47.842;13.096;2023-05-28T06:15:14;9.33;;;6.30;;
8663;SDS011;4369;47.842;13.096;2023-05-28T06:17:41;8.87;;;7.20;;
8663;SDS011;4369;47.842;13.096;2023-05-28T06:20:10;10.60;;;6.13;;
8663;SDS011;4369;47.842;13.096;2023-05-28T06:25:14;13.30;;;7.33;;
8663;SDS011;4369;47.842;13.096;2023-05-28T06:27:41;9.90;;;7.00;;
8663;SDS011;4369;47.842;13.096;2023-05-28T06:30:09;11.73;;;7.10;;
8663;SDS011;4369;47.842;13.096;2023-05-28T06:32:36;11.83;;;7.23;;
8663;SDS011;4369;47.842;13.096;2023-05-28T06:35:03;11.93;;;7.13;;
8663;SDS011;4369;47.842;13.096;2023-05-28T06:37:31;10.13;;;6.37;;
8663;SDS011;4369;47.842;13.096;2023-05-28T06:39:59;13.00;;;7.43;;
8663;SDS011;4369;47.842;13.096;2023-05-28T06:42:26;8.23;;;6.43;;
8663;SDS011;4369;47.842;13.096;2023-05-28T06:44:53;11.83;;;6.90;;
8663;SDS011;4369;47.842;13.096;2023-05-28T06:47:20;10.83;;;6.43;;
8663;SDS011;4369;47.842;13.096;2023-05-28T06:49:46;9.67;;;6.57;;
8663;SDS011;4369;47.842;13.096;2023-05-28T06:52:13;8.10;;;6.17;;
8663;SDS011;4369;47.842;13.096;2023-05-28T06:54:42;8.53;;;6.30;;
8663;SDS011;4369;47.842;13.096;2023-05-28T06:57:09;13.37;;;6.97;;
8663;SDS011;4369;47.842;13.096;2023-05-28T06:59:35;14.00;;;6.60;;
8663;SDS011;4369;47.842;13.096;2023-05-28T07:02:02;11.47;;;6.53;;
8663;SDS011;4369;47.842;13.096;2023-05-28T07:04:30;14.13;;;6.97;;
8663;SDS011;4369;47.842;13.096;2023-05-28T07:06:56;11.30;;;6.20;;
8663;SDS011;4369;47.842;13.096;2023-05-28T07:09:23;10.83;;;6.73;;
8663;SDS011;4369;47.842;13.096;2023-05-28T07:11:52;7.87;;;5.93;;
8663;SDS011;4369;47.842;13.096;2023-05-28T07:14:20;9.83;;;6.57;;
8663;SDS011;4369;47.842;13.096;2023-05-28T07:16:46;11.60;;;6.40;;
8663;SDS011;4369;47.842;13.096;2023-05-28T07:19:13;11.47;;;6.67;;
8663;SDS011;4369;47.842;13.096;2023-05-28T07:21:40;10.83;;;6.07;;
8663;SDS011;4369;47.842;13.096;2023-05-28T07:24:07;9.17;;;6.13;;
8663;SDS011;4369;47.842;13.096;2023-05-28T07:26:34;10.70;;;6.03;;
8663;SDS011;4369;47.842;13.096;2023-05-28T07:29:02;9.17;;;5.90;;
8663;SDS011;4369;47.842;13.096;2023-05-28T07:31:29;8.50;;;5.80;;
8663;SDS011;4369;47.842;13.096;2023-05-28T07:33:56;9.57;;;5.90;;
8663;SDS011;4369;47.842;13.096;2023-05-28T07:36:23;13.53;;;6.23;;
8663;SDS011;4369;47.842;13.096;2023-05-28T07:38:50;10.30;;;5.90;;
8663;SDS011;4369;47.842;13.096;2023-05-28T07:41:17;10.13;;;6.10;;
8663;SDS011;4369;47.842;13.096;2023-05-28T07:43:44;9.13;;;6.07;;
8663;SDS011;4369;47.842;13.096;2023-05-28T07:46:12;11.50;;;6.03;;
8663;SDS011;4369;47.842;13.096;2023-05-28T07:48:41;8.77;;;5.87;;
8663;SDS011;4369;47.842;13.096;2023-05-28T07:51:08;12.03;;;6.23;;
8663;SDS011;4369;47.842;13.096;2023-05-28T07:53:36;13.53;;;7.33;;
8663;SDS011;4369;47.842;13.096;2023-05-28T07:56:03;10.70;;;6.00;;
8663;SDS011;4369;47.842;13.096;2023-05-28T07:58:30;8.20;;;5.77;;
8663;SDS011;4369;47.842;13.096;2023-05-28T08:00:57;10.40;;;6.50;;
8663;SDS011;4369;47.842;13.096;2023-05-28T08:03:26;10.70;;;6.20;;
8663;SDS011;4369;47.842;13.096;2023-05-28T08:05:53;9.50;;;5.90;;
8663;SDS011;4369;47.842;13.096;2023-05-28T08:08:20;13.67;;;6.00;;
8663;SDS011;4369;47.842;13.096;2023-05-28T08:10:47;13.07;;;6.00;;
8663;SDS011;4369;47.842;13.096;2023-05-28T08:13:15;10.67;;;6.13;;
8663;SDS011;4369;47.842;13.096;2023-05-28T08:15:43;7.87;;;5.63;;
8663;SDS011;4369;47.842;13.096;2023-05-28T08:18:09;7.80;;;5.47;;
8663;SDS011;4369;47.842;13.096;2023-05-28T08:20:40;9.17;;;5.37;;
8663;SDS011;4369;47.842;13.096;2023-05-28T08:23:07;9.87;;;5.90;;
8663;SDS011;4369;47.842;13.096;2023-05-28T08:25:36;9.20;;;5.67;;
8663;SDS011;4369;47.842;13.096;2023-05-28T08:31:28;9.47;;;5.77;;
8663;SDS011;4369;47.842;13.096;2023-05-28T08:36:40;8.87;;;5.47;;
8663;SDS011;4369;47.842;13.096;2023-05-28T08:39:07;9.23;;;5.77;;
8663;SDS011;4369;47.842;13.096;2023-05-28T08:41:35;10.97;;;5.97;;
8663;SDS011;4369;47.842;13.096;2023-05-28T08:44:02;9.37;;;5.57;;
8663;SDS011;4369;47.842;13.096;2023-05-28T08:46:30;8.13;;;5.23;;
8663;SDS011;4369;47.842;13.096;2023-05-28T08:48:58;9.00;;;5.57;;
8663;SDS011;4369;47.842;13.096;2023-05-28T08:51:25;12.13;;;5.53;;
8663;SDS011;4369;47.842;13.096;2023-05-28T08:53:59;9.83;;;5.43;;
8663;SDS011;4369;47.842;13.096;2023-05-28T08:56:26;7.77;;;5.33;;
8663;SDS011;4369;47.842;13.096;2023-05-28T08:58:54;7.53;;;5.23;;
8663;SDS011;4369;47.842;13.096;2023-05-28T09:01:21;8.00;;;5.60;;
8663;SDS011;4369;47.842;13.096;2023-05-28T09:03:48;11.37;;;5.33;;
8663;SDS011;4369;47.842;13.096;2023-05-28T09:06:16;8.30;;;5.20;;
8663;SDS011;4369;47.842;13.096;2023-05-28T09:08:43;12.30;;;5.53;;
8663;SDS011;4369;47.842;13.096;2023-05-28T09:11:12;11.73;;;5.50;;
8663;SDS011;4369;47.842;13.096;2023-05-28T09:13:40;9.33;;;5.27;;
8663;SDS011;4369;47.842;13.096;2023-05-28T09:16:08;9.70;;;5.40;;
8663;SDS011;4369;47.842;13.096;2023-05-28T09:18:36;8.80;;;5.30;;
8663;SDS011;4369;47.842;13.096;2023-05-28T09:21:06;9.60;;;5.30;;
8663;SDS011;4369;47.842;13.096;2023-05-28T09:23:35;9.63;;;5.50;;
8663;SDS011;4369;47.842;13.096;2023-05-28T09:26:02;9.63;;;5.10;;
8663;SDS011;4369;47.842;13.096;2023-05-28T09:28:30;7.60;;;5.27;;
8663;SDS011;4369;47.842;13.096;2023-05-28T09:31:02;11.50;;;5.93;;
8663;SDS011;4369;47.842;13.096;2023-05-28T09:33:29;10.13;;;5.50;;
8663;SDS011;4369;47.842;13.096;2023-05-28T09:36:00;9.37;;;5.27;;
8663;SDS011;4369;47.842;13.096;2023-05-28T09:38:37;9.53;;;5.80;;
8663;SDS011;4369;47.842;13.096;2023-05-28T09:41:05;8.87;;;5.13;;
8663;SDS011;4369;47.842;13.096;2023-05-28T09:43:44;9.70;;;5.47;;
8663;SDS011;4369;47.842;13.096;2023-05-28T09:46:11;12.17;;;5.50;;
8663;SDS011;4369;47.842;13.096;2023-05-28T09:48:38;9.67;;;5.70;;
8663;SDS011;4369;47.842;13.096;2023-05-28T09:51:05;7.87;;;5.27;;
8663;SDS011;4369;47.842;13.096;2023-05-28T09:53:38;8.93;;;5.07;;
8663;SDS011;4369;47.842;13.096;2023-05-28T09:56:09;6.87;;;4.83;;
8663;SDS011;4369;47.842;13.096;2023-05-28T09:58:38;9.20;;;5.20;;
8663;SDS011;4369;47.842;13.096;2023-05-28T10:01:10;10.57;;;5.40;;
8663;SDS011;4369;47.842;13.096;2023-05-28T10:03:42;6.37;;;5.30;;
8663;SDS011;4369;47.842;13.096;2023-05-28T10:06:13;8.00;;;5.60;;
8663;SDS011;4369;47.842;13.096;2023-05-28T10:08:43;11.97;;;5.73;;
8663;SDS011;4369;47.842;13.096;2023-05-28T10:11:15;8.13;;;5.10;;
8663;SDS011;4369;47.842;13.096;2023-05-28T10:13:48;8.47;;;5.57;;
8663;SDS011;4369;47.842;13.096;2023-05-28T10:16:16;9.20;;;5.47;;
8663;SDS011;4369;47.842;13.096;2023-05-28T10:18:45;10.60;;;6.03;;
8663;SDS011;4369;47.842;13.096;2023-05-28T10:21:12;9.77;;;4.97;;
8663;SDS011;4369;47.842;13.096;2023-05-28T10:23:39;10.77;;;5.87;;
8663;SDS011;4369;47.842;13.096;2023-05-28T10:26:07;9.27;;;5.40;;
8663;SDS011;4369;47.842;13.096;2023-05-28T10:28:34;8.77;;;4.93;;
8663;SDS011;4369;47.842;13.096;2023-05-28T10:31:02;11.98;;;5.72;;
8663;SDS011;4369;47.842;13.096;2023-05-28T10:33:32;6.97;;;5.20;;
8663;SDS011;4369;47.842;13.096;2023-05-28T10:36:04;9.67;;;5.03;;
8663;SDS011;4369;47.842;13.096;2023-05-28T10:38:40;8.47;;;5.17;;
8663;SDS011;4369;47.842;13.096;2023-05-28T10:41:09;8.30;;;5.10;;
8663;SDS011;4369;47.842;13.096;2023-05-28T10:43:40;9.23;;;5.10;;
8663;SDS011;4369;47.842;13.096;2023-05-28T10:46:09;9.03;;;5.23;;
8663;SDS011;4369;47.842;13.096;2023-05-28T10:48:41;9.97;;;5.10;;
8663;SDS011;4369;47.842;13.096;2023-05-28T10:51:42;12.63;;;5.30;;
8663;SDS011;4369;47.842;13.096;2023-05-28T10:54:20;7.63;;;4.93;;
8663;SDS011;4369;47.842;13.096;2023-05-28T10:59:36;6.57;;;4.70;;
8663;SDS011;4369;47.842;13.096;2023-05-28T11:02:04;7.90;;;4.68;;
8663;SDS011;4369;47.842;13.096;2023-05-28T11:04:34;6.03;;;4.97;;
8663;SDS011;4369;47.842;13.096;2023-05-28T11:07:01;7.10;;;5.20;;
8663;SDS011;4369;47.842;13.096;2023-05-28T11:09:28;11.07;;;5.20;;
8663;SDS011;4369;47.842;13.096;2023-05-28T11:11:57;8.10;;;5.00;;
8663;SDS011;4369;47.842;13.096;2023-05-28T11:14:28;7.23;;;4.87;;
8663;SDS011;4369;47.842;13.096;2023-05-28T11:16:59;6.07;;;4.97;;
8663;SDS011;4369;47.842;13.096;2023-05-28T11:19:26;7.28;;;5.20;;
8663;SDS011;4369;47.842;13.096;2023-05-28T11:21:54;7.20;;;4.57;;
8663;SDS011;4369;47.842;13.096;2023-05-28T11:24:21;7.55;;;4.70;;
8663;SDS011;4369;47.842;13.096;2023-05-28T11:26:50;6.45;;;4.90;;
8663;SDS011;4369;47.842;13.096;2023-05-28T11:29:19;6.53;;;4.60;;
8663;SDS011;4369;47.842;13.096;2023-05-28T11:31:46;7.35;;;4.82;;
8663;SDS011;4369;47.842;13.096;2023-05-28T11:34:13;8.88;;;5.03;;
8663;SDS011;4369;47.842;13.096;2023-05-28T11:36:40;7.43;;;4.80;;
8663;SDS011;4369;47.842;13.096;2023-05-28T11:39:09;6.47;;;4.65;;
8663;SDS011;4369;47.842;13.096;2023-05-28T11:41:37;6.75;;;4.88;;
8663;SDS011;4369;47.842;13.096;2023-05-28T11:44:17;7.28;;;4.55;;
8663;SDS011;4369;47.842;13.096;2023-05-28T11:46:45;7.75;;;4.68;;
8663;SDS011;4369;47.842;13.096;2023-05-28T11:49:16;6.03;;;4.68;;
8663;SDS011;4369;47.842;13.096;2023-05-28T11:51:42;8.25;;;4.93;;
8663;SDS011;4369;47.842;13.096;2023-05-28T11:54:11;9.60;;;5.15;;
8663;SDS011;4369;47.842;13.096;2023-05-28T11:56:38;6.55;;;4.65;;
8663;SDS011;4369;47.842;13.096;2023-05-28T11:59:04;9.35;;;5.25;;
8663;SDS011;4369;47.842;13.096;2023-05-28T12:01:31;6.57;;;4.40;;
8663;SDS011;4369;47.842;13.096;2023-05-28T12:04:05;5.40;;;4.35;;
8663;SDS011;4369;47.842;13.096;2023-05-28T12:06:32;7.78;;;4.47;;
8663;SDS011;4369;47.842;13.096;2023-05-28T12:09:05;5.90;;;4.75;;
8663;SDS011;4369;47.842;13.096;2023-05-28T12:11:34;7.22;;;4.88;;
8663;SDS011;4369;47.842;13.096;2023-05-28T12:14:11;6.88;;;5.10;;
8663;SDS011;4369;47.842;13.096;2023-05-28T12:16:43;6.50;;;4.72;;
8663;SDS011;4369;47.842;13.096;2023-05-28T12:19:13;7.20;;;4.50;;
8663;SDS011;4369;47.842;13.096;2023-05-28T12:21:41;6.28;;;4.63;;
8663;SDS011;4369;47.842;13.096;2023-05-28T12:24:11;5.72;;;4.38;;
8663;SDS011;4369;47.842;13.096;2023-05-28T12:26:40;7.93;;;4.90;;
8663;SDS011;4369;47.842;13.096;2023-05-28T12:29:07;8.55;;;5.18;;
8663;SDS011;4369;47.842;13.096;2023-05-28T12:31:34;6.38;;;4.82;;
8663;SDS011;4369;47.842;13.096;2023-05-28T12:34:01;6.10;;;4.82;;
8663;SDS011;4369;47.842;13.096;2023-05-28T12:36:28;6.25;;;4.07;;
8663;SDS011;4369;47.842;13.096;2023-05-28T12:38:55;7.57;;;4.75;;
8663;SDS011;4369;47.842;13.096;2023-05-28T12:41:22;6.00;;;4.38;;
8663;SDS011;4369;47.842;13.096;2023-05-28T12:43:50;6.55;;;4.50;;
8663;SDS011;4369;47.842;13.096;2023-05-28T12:46:17;6.47;;;4.30;;
8663;SDS011;4369;47.842;13.096;2023-05-28T12:48:44;10.85;;;4.78;;
8663;SDS011;4369;47.842;13.096;2023-05-28T12:51:10;8.00;;;4.70;;
8663;SDS011;4369;47.842;13.096;2023-05-28T12:53:37;8.07;;;4.78;;
8663;SDS011;4369;47.842;13.096;2023-05-28T12:56:04;7.35;;;4.82;;
8663;SDS011;4369;47.842;13.096;2023-05-28T12:58:31;7.32;;;4.95;;
8663;SDS011;4369;47.842;13.096;2023-05-28T13:00:59;5.95;;;4.63;;
8663;SDS011;4369;47.842;13.096;2023-05-28T13:03:27;5.70;;;4.75;;
8663;SDS011;4369;47.842;13.096;2023-05-28T13:05:53;6.70;;;4.93;;
8663;SDS011;4369;47.842;13.096;2023-05-28T13:08:20;5.97;;;4.65;;
8663;SDS011;4369;47.842;13.096;2023-05-28T13:10:47;6.72;;;4.47;;
8663;SDS011;4369;47.842;13.096;2023-05-28T13:13:14;8.88;;;4.88;;
8663;SDS011;4369;47.842;13.096;2023-05-28T13:15:41;6.40;;;4.90;;
8663;SDS011;4369;47.842;13.096;2023-05-28T13:18:09;7.28;;;4.82;;
8663;SDS011;4369;47.842;13.096;2023-05-28T13:20:36;8.32;;;4.63;;
8663;SDS011;4369;47.842;13.096;2023-05-28T13:23:03;7.63;;;4.57;;
8663;SDS011;4369;47.842;13.096;2023-05-28T13:25:29;5.47;;;4.30;;
8663;SDS011;4369;47.842;13.096;2023-05-28T13:27:57;4.88;;;4.32;;
8663;SDS011;4369;47.842;13.096;2023-05-28T13:30:24;6.18;;;4.53;;
8663;SDS011;4369;47.842;13.096;2023-05-28T13:32:50;5.40;;;4.53;;
8663;SDS011;4369;47.842;13.096;2023-05-28T13:35:19;7.40;;;4.80;;
8663;SDS011;4369;47.842;13.096;2023-05-28T13:37:45;5.88;;;4.20;;
8663;SDS011;4369;47.842;13.096;2023-05-28T13:40:13;6.38;;;4.40;;
8663;SDS011;4369;47.842;13.096;2023-05-28T13:42:40;5.18;;;4.00;;
8663;SDS011;4369;47.842;13.096;2023-05-28T13:45:07;5.63;;;4.22;;
8663;SDS011;4369;47.842;13.096;2023-05-28T13:47:35;7.25;;;4.20;;
8663;SDS011;4369;47.842;13.096;2023-05-28T13:50:03;4.22;;;3.80;;
8663;SDS011;4369;47.842;13.096;2023-05-28T13:52:32;5.55;;;4.05;;
8663;SDS011;4369;47.842;13.096;2023-05-28T13:55:00;5.78;;;4.07;;
8663;SDS011;4369;47.842;13.096;2023-05-28T13:57:27;6.63;;;4.13;;
8663;SDS011;4369;47.842;13.096;2023-05-28T13:59:54;4.50;;;4.05;;
8663;SDS011;4369;47.842;13.096;2023-05-28T14:02:21;7.20;;;4.75;;
8663;SDS011;4369;47.842;13.096;2023-05-28T14:04:48;4.00;;;3.70;;
8663;SDS011;4369;47.842;13.096;2023-05-28T14:07:15;6.35;;;3.90;;
8663;SDS011;4369;47.842;13.096;2023-05-28T14:09:43;5.18;;;3.92;;
8663;SDS011;4369;47.842;13.096;2023-05-28T14:12:10;6.32;;;4.00;;
8663;SDS011;4369;47.842;13.096;2023-05-28T14:14:36;4.30;;;3.90;;
8663;SDS011;4369;47.842;13.096;2023-05-28T14:17:03;4.40;;;3.58;;
8663;SDS011;4369;47.842;13.096;2023-05-28T14:19:31;4.65;;;3.70;;
8663;SDS011;4369;47.842;13.096;2023-05-28T14:21:58;5.43;;;3.88;;
8663;SDS011;4369;47.842;13.096;2023-05-28T14:24:24;4.45;;;3.85;;
8663;SDS011;4369;47.842;13.096;2023-05-28T14:26:53;4.13;;;3.75;;
8663;SDS011;4369;47.842;13.096;2023-05-28T14:29:19;4.50;;;4.10;;
8663;SDS011;4369;47.842;13.096;2023-05-28T14:31:46;4.35;;;3.95;;
8663;SDS011;4369;47.842;13.096;2023-05-28T14:34:13;4.05;;;3.60;;
8663;SDS011;4369;47.842;13.096;2023-05-28T14:36:40;4.07;;;3.40;;
8663;SDS011;4369;47.842;13.096;2023-05-28T14:39:07;4.53;;;3.85;;
8663;SDS011;4369;47.842;13.096;2023-05-28T14:41:34;4.75;;;3.72;;
8663;SDS011;4369;47.842;13.096;2023-05-28T14:44:02;4.25;;;3.70;;
8663;SDS011;4369;47.842;13.096;2023-05-28T14:46:29;12.88;;;5.97;;
8663;SDS011;4369;47.842;13.096;2023-05-28T14:48:56;4.63;;;3.80;;
8663;SDS011;4369;47.842;13.096;2023-05-28T14:51:23;4.85;;;3.83;;
8663;SDS011;4369;47.842;13.096;2023-05-28T14:53:50;4.47;;;4.03;;
8663;SDS011;4369;47.842;13.096;2023-05-28T14:56:17;5.55;;;3.80;;
8663;SDS011;4369;47.842;13.096;2023-05-28T14:58:43;4.03;;;3.67;;
8663;SDS011;4369;47.842;13.096;2023-05-28T15:01:12;5.18;;;4.10;;
8663;SDS011;4369;47.842;13.096;2023-05-28T15:03:38;5.90;;;3.78;;
8663;SDS011;4369;47.842;13.096;2023-05-28T15:06:05;4.15;;;3.50;;
8663;SDS011;4369;47.842;13.096;2023-05-28T15:08:32;4.57;;;4.13;;
8663;SDS011;4369;47.842;13.096;2023-05-28T15:10:59;4.20;;;3.30;;
8663;SDS011;4369;47.842;13.096;2023-05-28T15:13:27;4.97;;;4.45;;
8663;SDS011;4369;47.842;13.096;2023-05-28T15:15:54;7.40;;;4.50;;
8663;SDS011;4369;47.842;13.096;2023-05-28T15:18:23;6.20;;;4.13;;
8663;SDS011;4369;47.842;13.096;2023-05-28T15:20:50;4.80;;;3.50;;
8663;SDS011;4369;47.842;13.096;2023-05-28T15:23:17;5.22;;;3.85;;
8663;SDS011;4369;47.842;13.096;2023-05-28T15:25:44;4.50;;;4.10;;
8663;SDS011;4369;47.842;13.096;2023-05-28T15:28:11;5.38;;;3.92;;
8663;SDS011;4369;47.842;13.096;2023-05-28T15:30:38;7.53;;;4.40;;
8663;SDS011;4369;47.842;13.096;2023-05-28T15:33:06;4.82;;;4.30;;
8663;SDS011;4369;47.842;13.096;2023-05-28T15:35:37;7.72;;;4.20;;
8663;SDS011;4369;47.842;13.096;2023-05-28T15:38:04;6.97;;;4.15;;
8663;SDS011;4369;47.842;13.096;2023-05-28T15:40:32;5.32;;;4.00;;
8663;SDS011;4369;47.842;13.096;2023-05-28T15:43:02;5.20;;;4.45;;
8663;SDS011;4369;47.842;13.096;2023-05-28T15:45:30;5.50;;;4.25;;
8663;SDS011;4369;47.842;13.096;2023-05-28T15:47:57;5.55;;;4.47;;
8663;SDS011;4369;47.842;13.096;2023-05-28T15:50:23;4.20;;;3.80;;
8663;SDS011;4369;47.842;13.096;2023-05-28T15:52:52;5.15;;;4.65;;
8663;SDS011;4369;47.842;13.096;2023-05-28T15:55:19;5.60;;;4.13;;
8663;SDS011;4369;47.842;13.096;2023-05-28T15:57:47;4.57;;;4.10;;
8663;SDS011;4369;47.842;13.096;2023-05-28T16:00:14;4.72;;;4.18;;
8663;SDS011;4369;47.842;13.096;2023-05-28T16:02:42;5.78;;;4.13;;
8663;SDS011;4369;47.842;13.096;2023-05-28T16:05:11;5.93;;;4.18;;
8663;SDS011;4369;47.842;13.096;2023-05-28T16:07:38;5.38;;;4.47;;
8663;SDS011;4369;47.842;13.096;2023-05-28T16:10:07;5.18;;;4.25;;
8663;SDS011;4369;47.842;13.096;2023-05-28T16:12:35;5.05;;;4.18;;
8663;SDS011;4369;47.842;13.096;2023-05-28T16:15:04;8.70;;;4.63;;
8663;SDS011;4369;47.842;13.096;2023-05-28T16:17:33;6.18;;;4.40;;
8663;SDS011;4369;47.842;13.096;2023-05-28T16:20:04;7.50;;;4.20;;
8663;SDS011;4369;47.842;13.096;2023-05-28T16:22:32;5.65;;;4.22;;
8663;SDS011;4369;47.842;13.096;2023-05-28T16:25:00;4.85;;;4.25;;
8663;SDS011;4369;47.842;13.096;2023-05-28T16:27:29;6.50;;;4.68;;
8663;SDS011;4369;47.842;13.096;2023-05-28T16:29:57;4.57;;;4.13;;
8663;SDS011;4369;47.842;13.096;2023-05-28T16:32:24;5.25;;;4.38;;
8663;SDS011;4369;47.842;13.096;2023-05-28T16:34:52;4.97;;;4.30;;
8663;SDS011;4369;47.842;13.096;2023-05-28T16:37:20;4.95;;;3.85;;
8663;SDS011;4369;47.842;13.096;2023-05-28T16:39:48;8.18;;;4.10;;
8663;SDS011;4369;47.842;13.096;2023-05-28T16:42:16;4.70;;;4.30;;
8663;SDS011;4369;47.842;13.096;2023-05-28T16:44:47;5.13;;;4.30;;
8663;SDS011;4369;47.842;13.096;2023-05-28T16:47:15;5.93;;;4.53;;
8663;SDS011;4369;47.842;13.096;2023-05-28T16:49:43;4.47;;;4.07;;
8663;SDS011;4369;47.842;13.096;2023-05-28T16:52:10;5.70;;;4.50;;
8663;SDS011;4369;47.842;13.096;2023-05-28T16:54:37;6.43;;;4.70;;
8663;SDS011;4369;47.842;13.096;2023-05-28T16:57:05;5.30;;;4.78;;
8663;SDS011;4369;47.842;13.096;2023-05-28T16:59:32;5.28;;;4.38;;
8663;SDS011;4369;47.842;13.096;2023-05-28T17:02:01;6.22;;;4.40;;
8663;SDS011;4369;47.842;13.096;2023-05-28T17:04:27;5.60;;;4.15;;
8663;SDS011;4369;47.842;13.096;2023-05-28T17:06:55;5.25;;;4.60;;
8663;SDS011;4369;47.842;13.096;2023-05-28T17:09:22;6.50;;;4.43;;
8663;SDS011;4369;47.842;13.096;2023-05-28T17:11:49;5.95;;;4.38;;
8663;SDS011;4369;47.842;13.096;2023-05-28T17:14:16;8.10;;;4.55;;